sensor_id;sensor_type;location;lat;lon;timestamp;P1;durP1;ratioP1;P2;durP2;ratioP2
20179;SDS011;10249;48.900;9.090;2023-07-31T00:00:53;11.20;;;10.80;;
20179;SDS011;10249;48.900;9.090;2023-07-31T00:03:20;11.43;;;11.03;;
20179;SDS011;10249;48.900;9.090;2023-07-31T00:05:47;11.20;;;10.80;;
20179;SDS011;10249;48.900;9.090;2023-07-31T00:08:14;10.83;;;10.43;;
20179;SDS011;10249;48.900;9.090;2023-07-31T00:10:41;11.00;;;10.60;;
20179;SDS011;10249;48.900;9.090;2023-07-31T00:13:08;11.03;;;10.63;;
20179;SDS011;10249;48.900;9.090;2023-07-31T00:15:37;11.10;;;10.70;;
20179;SDS011;10249;48.900;9.090;2023-07-31T00:18:04;11.07;;;10.67;;
20179;SDS011;10249;48.900;9.090;2023-07-31T00:20:31;10.43;;;10.03;;
20179;SDS011;10249;48.900;9.090;2023-07-31T00:22:58;10.60;;;10.20;;
20179;SDS011;10249;48.900;9.090;2023-07-31T00:25:25;10.43;;;10.03;;
20179;SDS011;10249;48.900;9.090;2023-07-31T00:27:52;10.30;;;9.90;;
20179;SDS011;10249;48.900;9.090;2023-07-31T00:30:19;10.30;;;9.90;;
20179;SDS011;10249;48.900;9.090;2023-07-31T00:32:48;10.40;;;10.00;;
20179;SDS011;10249;48.900;9.090;2023-07-31T00:35:15;10.43;;;10.03;;
20179;SDS011;10249;48.900;9.090;2023-07-31T00:37:42;10.20;;;9.90;;
20179;SDS011;10249;48.900;9.090;2023-07-31T00:40:10;10.70;;;10.30;;
20179;SDS011;10249;48.900;9.090;2023-07-31T00:42:38;10.10;;;9.80;;
20179;SDS011;10249;48.900;9.090;2023-07-31T00:45:06;10.03;;;9.73;;
20179;SDS011;10249;48.900;9.090;2023-07-31T00:47:33;10.40;;;10.00;;
20179;SDS011;10249;48.900;9.090;2023-07-31T00:50:01;9.93;;;9.63;;
20179;SDS011;10249;48.900;9.090;2023-07-31T00:52:28;10.27;;;9.87;;
20179;SDS011;10249;48.900;9.090;2023-07-31T00:54:55;10.60;;;10.20;;
20179;SDS011;10249;48.900;9.090;2023-07-31T00:57:22;10.37;;;9.97;;
20179;SDS011;10249;48.900;9.090;2023-07-31T00:59:49;10.07;;;9.77;;
20179;SDS011;10249;48.900;9.090;2023-07-31T01:02:16;10.07;;;9.77;;
20179;SDS011;10249;48.900;9.090;2023-07-31T01:04:44;10.00;;;9.70;;
20179;SDS011;10249;48.900;9.090;2023-07-31T01:07:13;10.00;;;9.70;;
20179;SDS011;10249;48.900;9.090;2023-07-31T01:09:42;10.00;;;9.70;;
20179;SDS011;10249;48.900;9.090;2023-07-31T01:12:13;9.83;;;9.53;;
20179;SDS011;10249;48.900;9.090;2023-07-31T01:14:40;9.57;;;9.27;;
20179;SDS011;10249;48.900;9.090;2023-07-31T01:17:17;9.77;;;9.47;;
20179;SDS011;10249;48.900;9.090;2023-07-31T01:19:44;9.70;;;9.40;;
20179;SDS011;10249;48.900;9.090;2023-07-31T01:22:30;9.87;;;9.57;;
20179;SDS011;10249;48.900;9.090;2023-07-31T01:25:05;9.80;;;9.50;;
20179;SDS011;10249;48.900;9.090;2023-07-31T01:27:41;9.53;;;9.23;;
20179;SDS011;10249;48.900;9.090;2023-07-31T01:30:11;10.73;;;10.33;;
20179;SDS011;10249;48.900;9.090;2023-07-31T01:32:42;9.80;;;9.50;;
20179;SDS011;10249;48.900;9.090;2023-07-31T01:35:09;9.70;;;9.40;;
20179;SDS011;10249;48.900;9.090;2023-07-31T01:37:37;10.40;;;10.00;;
20179;SDS011;10249;48.900;9.090;2023-07-31T01:40:04;9.60;;;9.30;;
20179;SDS011;10249;48.900;9.090;2023-07-31T01:42:31;9.53;;;9.23;;
20179;SDS011;10249;48.900;9.090;2023-07-31T01:45:00;9.63;;;9.33;;
20179;SDS011;10249;48.900;9.090;2023-07-31T01:47:27;9.40;;;9.10;;
20179;SDS011;10249;48.900;9.090;2023-07-31T01:49:54;9.90;;;9.50;;
20179;SDS011;10249;48.900;9.090;2023-07-31T01:52:21;9.90;;;9.60;;
20179;SDS011;10249;48.900;9.090;2023-07-31T01:54:48;9.47;;;9.17;;
20179;SDS011;10249;48.900;9.090;2023-07-31T01:57:15;9.47;;;9.17;;
20179;SDS011;10249;48.900;9.090;2023-07-31T01:59:42;9.60;;;9.30;;
20179;SDS011;10249;48.900;9.090;2023-07-31T02:02:11;9.60;;;9.30;;
20179;SDS011;10249;48.900;9.090;2023-07-31T02:04:38;9.80;;;9.50;;
20179;SDS011;10249;48.900;9.090;2023-07-31T02:07:05;9.50;;;9.20;;
20179;SDS011;10249;48.900;9.090;2023-07-31T02:09:33;9.57;;;9.27;;
20179;SDS011;10249;48.900;9.090;2023-07-31T02:12:00;9.70;;;9.40;;
20179;SDS011;10249;48.900;9.090;2023-07-31T02:14:27;9.77;;;9.47;;
20179;SDS011;10249;48.900;9.090;2023-07-31T02:16:54;9.97;;;9.63;;
20179;SDS011;10249;48.900;9.090;2023-07-31T02:19:22;9.67;;;9.37;;
20179;SDS011;10249;48.900;9.090;2023-07-31T02:21:49;9.50;;;9.20;;
20179;SDS011;10249;48.900;9.090;2023-07-31T02:24:16;9.30;;;9.00;;
20179;SDS011;10249;48.900;9.090;2023-07-31T02:26:43;9.40;;;9.10;;
20179;SDS011;10249;48.900;9.090;2023-07-31T02:29:10;9.27;;;8.97;;
20179;SDS011;10249;48.900;9.090;2023-07-31T02:31:37;9.70;;;9.40;;
20179;SDS011;10249;48.900;9.090;2023-07-31T02:34:04;9.43;;;9.13;;
20179;SDS011;10249;48.900;9.090;2023-07-31T02:36:33;9.50;;;9.20;;
20179;SDS011;10249;48.900;9.090;2023-07-31T02:39:00;9.57;;;9.27;;
20179;SDS011;10249;48.900;9.090;2023-07-31T02:41:27;9.47;;;9.17;;
20179;SDS011;10249;48.900;9.090;2023-07-31T02:43:54;10.40;;;10.00;;
20179;SDS011;10249;48.900;9.090;2023-07-31T02:46:21;9.80;;;9.50;;
20179;SDS011;10249;48.900;9.090;2023-07-31T02:48:49;10.00;;;9.70;;
20179;SDS011;10249;48.900;9.090;2023-07-31T02:51:16;10.00;;;9.70;;
20179;SDS011;10249;48.900;9.090;2023-07-31T02:53:45;10.07;;;9.77;;
20179;SDS011;10249;48.900;9.090;2023-07-31T02:56:12;10.37;;;9.97;;
20179;SDS011;10249;48.900;9.090;2023-07-31T02:58:40;10.10;;;9.80;;
20179;SDS011;10249;48.900;9.090;2023-07-31T03:01:07;10.50;;;10.10;;
20179;SDS011;10249;48.900;9.090;2023-07-31T03:03:34;9.77;;;9.47;;
20179;SDS011;10249;48.900;9.090;2023-07-31T03:06:01;10.13;;;9.83;;
20179;SDS011;10249;48.900;9.090;2023-07-31T03:08:28;10.00;;;9.70;;
20179;SDS011;10249;48.900;9.090;2023-07-31T03:10:57;10.30;;;9.90;;
20179;SDS011;10249;48.900;9.090;2023-07-31T03:13:24;10.10;;;9.80;;
20179;SDS011;10249;48.900;9.090;2023-07-31T03:15:51;10.40;;;10.00;;
20179;SDS011;10249;48.900;9.090;2023-07-31T03:18:18;10.63;;;10.23;;
20179;SDS011;10249;48.900;9.090;2023-07-31T03:20:45;9.90;;;9.60;;
20179;SDS011;10249;48.900;9.090;2023-07-31T03:23:13;10.53;;;10.13;;
20179;SDS011;10249;48.900;9.090;2023-07-31T03:25:41;10.10;;;9.80;;
20179;SDS011;10249;48.900;9.090;2023-07-31T03:28:10;10.10;;;9.80;;
20179;SDS011;10249;48.900;9.090;2023-07-31T03:30:37;10.00;;;9.70;;
20179;SDS011;10249;48.900;9.090;2023-07-31T03:33:04;10.47;;;10.07;;
20179;SDS011;10249;48.900;9.090;2023-07-31T03:35:31;10.07;;;9.77;;
20179;SDS011;10249;48.900;9.090;2023-07-31T03:37:58;10.00;;;9.70;;
20179;SDS011;10249;48.900;9.090;2023-07-31T03:40:25;10.30;;;9.90;;
20179;SDS011;10249;48.900;9.090;2023-07-31T03:42:52;10.40;;;10.00;;
20179;SDS011;10249;48.900;9.090;2023-07-31T03:45:20;10.20;;;9.80;;
20179;SDS011;10249;48.900;9.090;2023-07-31T03:47:47;10.03;;;9.73;;
20179;SDS011;10249;48.900;9.090;2023-07-31T03:50:14;10.10;;;9.80;;
20179;SDS011;10249;48.900;9.090;2023-07-31T03:52:41;10.43;;;10.03;;
20179;SDS011;10249;48.900;9.090;2023-07-31T03:55:08;10.70;;;10.30;;
20179;SDS011;10249;48.900;9.090;2023-07-31T03:57:36;13.33;;;10.90;;
20179;SDS011;10249;48.900;9.090;2023-07-31T04:00:03;10.50;;;10.10;;
20179;SDS011;10249;48.900;9.090;2023-07-31T04:02:31;10.60;;;10.20;;
20179;SDS011;10249;48.900;9.090;2023-07-31T04:04:58;10.07;;;9.77;;
20179;SDS011;10249;48.900;9.090;2023-07-31T04:07:25;10.40;;;10.00;;
20179;SDS011;10249;48.900;9.090;2023-07-31T04:09:52;10.37;;;9.97;;
20179;SDS011;10249;48.900;9.090;2023-07-31T04:12:20;10.57;;;10.17;;
20179;SDS011;10249;48.900;9.090;2023-07-31T04:14:47;10.80;;;10.40;;
20179;SDS011;10249;48.900;9.090;2023-07-31T04:17:14;10.90;;;10.50;;
20179;SDS011;10249;48.900;9.090;2023-07-31T04:19:42;11.10;;;10.70;;
20179;SDS011;10249;48.900;9.090;2023-07-31T04:22:09;11.00;;;10.60;;
20179;SDS011;10249;48.900;9.090;2023-07-31T04:24:36;10.90;;;10.50;;
20179;SDS011;10249;48.900;9.090;2023-07-31T04:27:03;10.90;;;10.50;;
20179;SDS011;10249;48.900;9.090;2023-07-31T04:29:31;11.43;;;11.03;;
20179;SDS011;10249;48.900;9.090;2023-07-31T04:31:58;11.00;;;10.60;;
20179;SDS011;10249;48.900;9.090;2023-07-31T04:34:25;11.30;;;10.90;;
20179;SDS011;10249;48.900;9.090;2023-07-31T04:36:53;11.00;;;10.60;;
20179;SDS011;10249;48.900;9.090;2023-07-31T04:39:20;11.33;;;10.93;;
20179;SDS011;10249;48.900;9.090;2023-07-31T04:41:47;11.23;;;10.83;;
20179;SDS011;10249;48.900;9.090;2023-07-31T04:44:14;11.13;;;10.73;;
20179;SDS011;10249;48.900;9.090;2023-07-31T04:46:41;11.60;;;11.20;;
20179;SDS011;10249;48.900;9.090;2023-07-31T04:49:08;12.03;;;11.53;;
20179;SDS011;10249;48.900;9.090;2023-07-31T04:51:35;11.70;;;11.30;;
20179;SDS011;10249;48.900;9.090;2023-07-31T04:54:04;12.10;;;11.60;;
20179;SDS011;10249;48.900;9.090;2023-07-31T04:56:31;12.23;;;11.73;;
20179;SDS011;10249;48.900;9.090;2023-07-31T04:58:58;11.67;;;11.27;;
20179;SDS011;10249;48.900;9.090;2023-07-31T05:01:25;11.80;;;11.30;;
20179;SDS011;10249;48.900;9.090;2023-07-31T05:03:52;11.90;;;11.50;;
20179;SDS011;10249;48.900;9.090;2023-07-31T05:06:19;11.97;;;11.47;;
20179;SDS011;10249;48.900;9.090;2023-07-31T05:08:46;12.10;;;11.60;;
20179;SDS011;10249;48.900;9.090;2023-07-31T05:11:15;12.43;;;11.93;;
20179;SDS011;10249;48.900;9.090;2023-07-31T05:13:42;12.20;;;11.70;;
20179;SDS011;10249;48.900;9.090;2023-07-31T05:16:09;12.23;;;11.73;;
20179;SDS011;10249;48.900;9.090;2023-07-31T05:18:36;11.67;;;11.27;;
20179;SDS011;10249;48.900;9.090;2023-07-31T05:21:03;12.10;;;11.60;;
20179;SDS011;10249;48.900;9.090;2023-07-31T05:23:30;11.73;;;11.33;;
20179;SDS011;10249;48.900;9.090;2023-07-31T05:26:02;11.80;;;11.40;;
20179;SDS011;10249;48.900;9.090;2023-07-31T05:28:30;12.10;;;11.60;;
20179;SDS011;10249;48.900;9.090;2023-07-31T05:30:58;12.27;;;11.77;;
20179;SDS011;10249;48.900;9.090;2023-07-31T05:33:26;12.27;;;11.77;;
20179;SDS011;10249;48.900;9.090;2023-07-31T05:35:53;12.00;;;11.50;;
20179;SDS011;10249;48.900;9.090;2023-07-31T05:38:20;11.80;;;11.40;;
20179;SDS011;10249;48.900;9.090;2023-07-31T05:40:47;11.80;;;11.40;;
20179;SDS011;10249;48.900;9.090;2023-07-31T05:43:14;12.93;;;12.23;;
20179;SDS011;10249;48.900;9.090;2023-07-31T05:45:43;11.70;;;11.30;;
20179;SDS011;10249;48.900;9.090;2023-07-31T05:48:10;11.90;;;11.50;;
20179;SDS011;10249;48.900;9.090;2023-07-31T05:50:37;11.63;;;11.23;;
20179;SDS011;10249;48.900;9.090;2023-07-31T05:53:05;11.70;;;11.30;;
20179;SDS011;10249;48.900;9.090;2023-07-31T05:55:33;11.50;;;11.10;;
20179;SDS011;10249;48.900;9.090;2023-07-31T05:58:00;11.60;;;11.20;;
20179;SDS011;10249;48.900;9.090;2023-07-31T06:00:27;11.83;;;11.33;;
20179;SDS011;10249;48.900;9.090;2023-07-31T06:02:55;11.90;;;11.40;;
20179;SDS011;10249;48.900;9.090;2023-07-31T06:05:22;11.53;;;11.13;;
20179;SDS011;10249;48.900;9.090;2023-07-31T06:07:49;12.03;;;11.60;;
20179;SDS011;10249;48.900;9.090;2023-07-31T06:10:16;11.80;;;11.40;;
20179;SDS011;10249;48.900;9.090;2023-07-31T06:12:43;12.60;;;12.10;;
20179;SDS011;10249;48.900;9.090;2023-07-31T06:15:10;12.60;;;12.10;;
20179;SDS011;10249;48.900;9.090;2023-07-31T06:17:38;12.80;;;12.30;;
20179;SDS011;10249;48.900;9.090;2023-07-31T06:20:07;13.20;;;12.70;;
20179;SDS011;10249;48.900;9.090;2023-07-31T06:22:35;12.80;;;12.30;;
20179;SDS011;10249;48.900;9.090;2023-07-31T06:25:02;12.97;;;12.47;;
20179;SDS011;10249;48.900;9.090;2023-07-31T06:27:29;13.10;;;12.60;;
20179;SDS011;10249;48.900;9.090;2023-07-31T06:29:56;13.00;;;12.50;;
20179;SDS011;10249;48.900;9.090;2023-07-31T06:32:23;13.43;;;12.93;;
20179;SDS011;10249;48.900;9.090;2023-07-31T06:34:50;13.60;;;13.10;;
20179;SDS011;10249;48.900;9.090;2023-07-31T06:37:20;13.50;;;13.00;;
20179;SDS011;10249;48.900;9.090;2023-07-31T06:39:47;13.53;;;12.97;;
20179;SDS011;10249;48.900;9.090;2023-07-31T06:42:14;13.47;;;12.97;;
20179;SDS011;10249;48.900;9.090;2023-07-31T06:44:41;13.53;;;12.97;;
20179;SDS011;10249;48.900;9.090;2023-07-31T06:47:08;13.83;;;13.23;;
20179;SDS011;10249;48.900;9.090;2023-07-31T06:49:35;13.57;;;13.07;;
20179;SDS011;10249;48.900;9.090;2023-07-31T06:52:03;13.50;;;13.00;;
20179;SDS011;10249;48.900;9.090;2023-07-31T06:54:31;14.10;;;13.50;;
20179;SDS011;10249;48.900;9.090;2023-07-31T06:56:58;13.90;;;13.30;;
20179;SDS011;10249;48.900;9.090;2023-07-31T06:59:25;14.30;;;13.70;;
20179;SDS011;10249;48.900;9.090;2023-07-31T07:01:53;14.03;;;13.43;;
20179;SDS011;10249;48.900;9.090;2023-07-31T07:04:20;13.80;;;13.20;;
20179;SDS011;10249;48.900;9.090;2023-07-31T07:06:47;13.93;;;13.33;;
20179;SDS011;10249;48.900;9.090;2023-07-31T07:09:14;14.13;;;13.53;;
20179;SDS011;10249;48.900;9.090;2023-07-31T07:11:42;13.97;;;13.37;;
20179;SDS011;10249;48.900;9.090;2023-07-31T07:14:09;14.40;;;13.80;;
20179;SDS011;10249;48.900;9.090;2023-07-31T07:16:36;14.70;;;14.10;;
20179;SDS011;10249;48.900;9.090;2023-07-31T07:19:05;14.07;;;13.47;;
20179;SDS011;10249;48.900;9.090;2023-07-31T07:21:33;14.30;;;13.70;;
20179;SDS011;10249;48.900;9.090;2023-07-31T07:24:00;14.20;;;13.60;;
20179;SDS011;10249;48.900;9.090;2023-07-31T07:26:27;14.07;;;13.47;;
20179;SDS011;10249;48.900;9.090;2023-07-31T07:28:55;13.97;;;13.37;;
20179;SDS011;10249;48.900;9.090;2023-07-31T07:31:22;14.47;;;13.77;;
20179;SDS011;10249;48.900;9.090;2023-07-31T07:33:49;13.93;;;13.33;;
20179;SDS011;10249;48.900;9.090;2023-07-31T07:36:17;14.20;;;13.60;;
20179;SDS011;10249;48.900;9.090;2023-07-31T07:38:44;14.00;;;13.40;;
20179;SDS011;10249;48.900;9.090;2023-07-31T07:41:11;14.50;;;13.80;;
20179;SDS011;10249;48.900;9.090;2023-07-31T07:43:38;14.37;;;13.77;;
20179;SDS011;10249;48.900;9.090;2023-07-31T07:46:06;14.00;;;13.40;;
20179;SDS011;10249;48.900;9.090;2023-07-31T07:48:33;14.07;;;13.47;;
20179;SDS011;10249;48.900;9.090;2023-07-31T07:51:00;13.87;;;13.27;;
20179;SDS011;10249;48.900;9.090;2023-07-31T07:53:27;13.80;;;13.20;;
20179;SDS011;10249;48.900;9.090;2023-07-31T07:55:54;14.20;;;13.60;;
20179;SDS011;10249;48.900;9.090;2023-07-31T07:58:21;14.50;;;13.90;;
20179;SDS011;10249;48.900;9.090;2023-07-31T08:00:49;14.20;;;13.60;;
20179;SDS011;10249;48.900;9.090;2023-07-31T08:03:18;14.00;;;13.40;;
20179;SDS011;10249;48.900;9.090;2023-07-31T08:05:45;13.93;;;13.33;;
20179;SDS011;10249;48.900;9.090;2023-07-31T08:08:14;14.37;;;13.77;;
20179;SDS011;10249;48.900;9.090;2023-07-31T08:10:41;13.73;;;13.13;;
20179;SDS011;10249;48.900;9.090;2023-07-31T08:13:09;14.30;;;13.70;;
20179;SDS011;10249;48.900;9.090;2023-07-31T08:15:36;14.07;;;13.47;;
20179;SDS011;10249;48.900;9.090;2023-07-31T08:18:03;14.00;;;13.40;;
20179;SDS011;10249;48.900;9.090;2023-07-31T08:20:31;14.00;;;13.40;;
20179;SDS011;10249;48.900;9.090;2023-07-31T08:22:58;13.97;;;13.37;;
20179;SDS011;10249;48.900;9.090;2023-07-31T08:25:25;14.03;;;13.43;;
20179;SDS011;10249;48.900;9.090;2023-07-31T08:27:52;13.90;;;13.30;;
20179;SDS011;10249;48.900;9.090;2023-07-31T08:30:20;14.00;;;13.40;;
20179;SDS011;10249;48.900;9.090;2023-07-31T08:32:48;14.07;;;13.47;;
20179;SDS011;10249;48.900;9.090;2023-07-31T08:35:15;14.10;;;13.50;;
20179;SDS011;10249;48.900;9.090;2023-07-31T08:37:44;14.37;;;13.77;;
20179;SDS011;10249;48.900;9.090;2023-07-31T08:40:11;14.60;;;13.90;;
20179;SDS011;10249;48.900;9.090;2023-07-31T08:42:43;14.70;;;14.10;;
20179;SDS011;10249;48.900;9.090;2023-07-31T08:45:11;14.37;;;13.77;;
20179;SDS011;10249;48.900;9.090;2023-07-31T08:47:40;14.67;;;13.97;;
20179;SDS011;10249;48.900;9.090;2023-07-31T08:50:07;14.63;;;14.03;;
20179;SDS011;10249;48.900;9.090;2023-07-31T08:52:35;16.00;;;15.30;;
20179;SDS011;10249;48.900;9.090;2023-07-31T08:55:03;14.30;;;13.70;;
20179;SDS011;10249;48.900;9.090;2023-07-31T08:57:31;14.40;;;13.80;;
20179;SDS011;10249;48.900;9.090;2023-07-31T08:59:58;14.57;;;13.87;;
20179;SDS011;10249;48.900;9.090;2023-07-31T09:02:25;14.97;;;14.27;;
20179;SDS011;10249;48.900;9.090;2023-07-31T09:04:57;14.50;;;13.90;;
20179;SDS011;10249;48.900;9.090;2023-07-31T09:07:24;14.70;;;14.07;;
20179;SDS011;10249;48.900;9.090;2023-07-31T09:09:51;13.90;;;13.30;;
20179;SDS011;10249;48.900;9.090;2023-07-31T09:12:20;14.00;;;13.40;;
20179;SDS011;10249;48.900;9.090;2023-07-31T09:14:47;14.57;;;13.97;;
20179;SDS011;10249;48.900;9.090;2023-07-31T09:17:14;14.30;;;13.70;;
20179;SDS011;10249;48.900;9.090;2023-07-31T09:19:43;14.50;;;13.90;;
20179;SDS011;10249;48.900;9.090;2023-07-31T09:22:10;14.53;;;13.83;;
20179;SDS011;10249;48.900;9.090;2023-07-31T09:24:37;15.20;;;14.50;;
20179;SDS011;10249;48.900;9.090;2023-07-31T09:27:05;15.00;;;14.30;;
20179;SDS011;10249;48.900;9.090;2023-07-31T09:29:34;15.20;;;14.50;;
20179;SDS011;10249;48.900;9.090;2023-07-31T09:32:01;15.33;;;14.63;;
20179;SDS011;10249;48.900;9.090;2023-07-31T09:34:28;14.90;;;14.20;;
20179;SDS011;10249;48.900;9.090;2023-07-31T09:36:58;14.93;;;14.23;;
20179;SDS011;10249;48.900;9.090;2023-07-31T09:39:27;16.33;;;15.43;;
20179;SDS011;10249;48.900;9.090;2023-07-31T09:41:56;14.90;;;14.20;;
20179;SDS011;10249;48.900;9.090;2023-07-31T09:44:38;15.90;;;15.20;;
20179;SDS011;10249;48.900;9.090;2023-07-31T09:47:06;15.50;;;14.80;;
20179;SDS011;10249;48.900;9.090;2023-07-31T09:49:33;14.80;;;14.20;;
20179;SDS011;10249;48.900;9.090;2023-07-31T09:52:00;15.23;;;14.53;;
20179;SDS011;10249;48.900;9.090;2023-07-31T09:54:27;15.77;;;14.97;;
20179;SDS011;10249;48.900;9.090;2023-07-31T09:56:54;14.70;;;14.00;;
20179;SDS011;10249;48.900;9.090;2023-07-31T09:59:23;15.00;;;14.40;;
20179;SDS011;10249;48.900;9.090;2023-07-31T10:01:51;14.90;;;14.20;;
20179;SDS011;10249;48.900;9.090;2023-07-31T10:04:19;15.07;;;14.37;;
20179;SDS011;10249;48.900;9.090;2023-07-31T10:06:50;15.00;;;14.30;;
20179;SDS011;10249;48.900;9.090;2023-07-31T10:09:20;15.17;;;14.47;;
20179;SDS011;10249;48.900;9.090;2023-07-31T10:11:50;15.10;;;14.40;;
20179;SDS011;10249;48.900;9.090;2023-07-31T10:14:21;15.50;;;14.80;;
20179;SDS011;10249;48.900;9.090;2023-07-31T10:16:48;15.60;;;14.85;;
20179;SDS011;10249;48.900;9.090;2023-07-31T10:19:17;15.00;;;14.30;;
20179;SDS011;10249;48.900;9.090;2023-07-31T10:21:44;15.23;;;14.43;;
20179;SDS011;10249;48.900;9.090;2023-07-31T10:24:12;15.50;;;14.80;;
20179;SDS011;10249;48.900;9.090;2023-07-31T10:26:39;16.03;;;15.23;;
20179;SDS011;10249;48.900;9.090;2023-07-31T10:29:07;15.70;;;15.00;;
20179;SDS011;10249;48.900;9.090;2023-07-31T10:31:34;16.30;;;15.50;;
20179;SDS011;10249;48.900;9.090;2023-07-31T10:34:02;15.47;;;14.67;;
20179;SDS011;10249;48.900;9.090;2023-07-31T10:36:31;14.93;;;14.23;;
20179;SDS011;10249;48.900;9.090;2023-07-31T10:38:58;15.80;;;15.00;;
20179;SDS011;10249;48.900;9.090;2023-07-31T10:41:28;15.73;;;14.93;;
20179;SDS011;10249;48.900;9.090;2023-07-31T10:43:57;15.00;;;14.30;;
20179;SDS011;10249;48.900;9.090;2023-07-31T10:46:24;16.40;;;15.47;;
20179;SDS011;10249;48.900;9.090;2023-07-31T10:48:57;15.20;;;14.50;;
20179;SDS011;10249;48.900;9.090;2023-07-31T10:51:26;15.23;;;14.53;;
20179;SDS011;10249;48.900;9.090;2023-07-31T10:54:11;15.23;;;14.53;;
20179;SDS011;10249;48.900;9.090;2023-07-31T10:56:39;15.17;;;14.47;;
20179;SDS011;10249;48.900;9.090;2023-07-31T10:59:06;15.23;;;14.53;;
20179;SDS011;10249;48.900;9.090;2023-07-31T11:01:49;15.30;;;14.60;;
20179;SDS011;10249;48.900;9.090;2023-07-31T11:04:21;15.40;;;14.70;;
20179;SDS011;10249;48.900;9.090;2023-07-31T11:06:55;15.10;;;14.40;;
20179;SDS011;10249;48.900;9.090;2023-07-31T11:09:24;15.00;;;14.30;;
20179;SDS011;10249;48.900;9.090;2023-07-31T11:11:51;15.23;;;14.53;;
20179;SDS011;10249;48.900;9.090;2023-07-31T11:14:18;15.50;;;14.80;;
20179;SDS011;10249;48.900;9.090;2023-07-31T11:16:45;15.87;;;15.07;;
20179;SDS011;10249;48.900;9.090;2023-07-31T11:19:12;15.73;;;14.93;;
20179;SDS011;10249;48.900;9.090;2023-07-31T11:21:39;15.00;;;14.30;;
20179;SDS011;10249;48.900;9.090;2023-07-31T11:24:06;15.40;;;14.60;;
20179;SDS011;10249;48.900;9.090;2023-07-31T11:26:35;15.40;;;14.60;;
20179;SDS011;10249;48.900;9.090;2023-07-31T11:29:02;14.87;;;14.17;;
20179;SDS011;10249;48.900;9.090;2023-07-31T11:31:41;15.87;;;15.07;;
20179;SDS011;10249;48.900;9.090;2023-07-31T11:34:08;15.37;;;14.57;;
20179;SDS011;10249;48.900;9.090;2023-07-31T11:36:35;15.20;;;14.40;;
20179;SDS011;10249;48.900;9.090;2023-07-31T11:39:05;15.23;;;14.53;;
20179;SDS011;10249;48.900;9.090;2023-07-31T11:41:32;15.00;;;14.30;;
20179;SDS011;10249;48.900;9.090;2023-07-31T11:44:01;15.40;;;14.60;;
20179;SDS011;10249;48.900;9.090;2023-07-31T11:46:29;15.10;;;14.40;;
20179;SDS011;10249;48.900;9.090;2023-07-31T11:48:58;15.53;;;14.83;;
20179;SDS011;10249;48.900;9.090;2023-07-31T11:51:26;14.67;;;13.97;;
20179;SDS011;10249;48.900;9.090;2023-07-31T11:53:55;14.70;;;14.00;;
20179;SDS011;10249;48.900;9.090;2023-07-31T11:56:23;15.37;;;14.67;;
20179;SDS011;10249;48.900;9.090;2023-07-31T11:58:51;15.47;;;14.77;;
20179;SDS011;10249;48.900;9.090;2023-07-31T12:01:20;14.98;;;14.27;;
20179;SDS011;10249;48.900;9.090;2023-07-31T12:03:48;15.43;;;14.60;;
20179;SDS011;10249;48.900;9.090;2023-07-31T12:06:16;15.00;;;14.30;;
20179;SDS011;10249;48.900;9.090;2023-07-31T12:08:45;14.87;;;14.17;;
20179;SDS011;10249;48.900;9.090;2023-07-31T12:11:13;15.50;;;14.80;;
20179;SDS011;10249;48.900;9.090;2023-07-31T12:13:40;15.30;;;14.50;;
20179;SDS011;10249;48.900;9.090;2023-07-31T12:16:07;15.23;;;14.47;;
20179;SDS011;10249;48.900;9.090;2023-07-31T12:18:36;14.93;;;14.23;;
20179;SDS011;10249;48.900;9.090;2023-07-31T12:21:04;15.43;;;14.63;;
20179;SDS011;10249;48.900;9.090;2023-07-31T12:23:33;15.50;;;14.70;;
20179;SDS011;10249;48.900;9.090;2023-07-31T12:26:00;15.70;;;14.80;;
20179;SDS011;10249;48.900;9.090;2023-07-31T12:28:27;15.20;;;14.50;;
20179;SDS011;10249;48.900;9.090;2023-07-31T12:30:56;15.30;;;14.50;;
20179;SDS011;10249;48.900;9.090;2023-07-31T12:33:24;15.00;;;14.30;;
20179;SDS011;10249;48.900;9.090;2023-07-31T12:35:59;15.00;;;14.30;;
20179;SDS011;10249;48.900;9.090;2023-07-31T12:38:27;14.77;;;14.07;;
20179;SDS011;10249;48.900;9.090;2023-07-31T12:40:54;14.80;;;14.10;;
20179;SDS011;10249;48.900;9.090;2023-07-31T12:43:21;14.70;;;14.00;;
20179;SDS011;10249;48.900;9.090;2023-07-31T12:45:48;14.80;;;14.10;;
20179;SDS011;10249;48.900;9.090;2023-07-31T12:48:15;15.37;;;14.60;;
20179;SDS011;10249;48.900;9.090;2023-07-31T12:50:42;14.90;;;14.20;;
20179;SDS011;10249;48.900;9.090;2023-07-31T12:53:11;14.90;;;14.20;;
20179;SDS011;10249;48.900;9.090;2023-07-31T12:55:38;15.50;;;14.70;;
20179;SDS011;10249;48.900;9.090;2023-07-31T12:58:05;15.25;;;14.45;;
20179;SDS011;10249;48.900;9.090;2023-07-31T13:00:32;15.18;;;14.48;;
20179;SDS011;10249;48.900;9.090;2023-07-31T13:02:59;15.40;;;14.60;;
20179;SDS011;10249;48.900;9.090;2023-07-31T13:05:27;14.63;;;13.93;;
20179;SDS011;10249;48.900;9.090;2023-07-31T13:07:54;15.50;;;14.80;;
20179;SDS011;10249;48.900;9.090;2023-07-31T13:10:23;15.13;;;14.37;;
20179;SDS011;10249;48.900;9.090;2023-07-31T13:12:51;15.20;;;14.50;;
20179;SDS011;10249;48.900;9.090;2023-07-31T13:15:18;15.30;;;14.60;;
20179;SDS011;10249;48.900;9.090;2023-07-31T13:17:46;14.80;;;14.10;;
20179;SDS011;10249;48.900;9.090;2023-07-31T13:20:13;15.20;;;14.50;;
20179;SDS011;10249;48.900;9.090;2023-07-31T13:22:40;15.00;;;14.30;;
20179;SDS011;10249;48.900;9.090;2023-07-31T13:25:07;14.80;;;14.10;;
20179;SDS011;10249;48.900;9.090;2023-07-31T13:27:36;14.93;;;14.23;;
20179;SDS011;10249;48.900;9.090;2023-07-31T13:30:03;15.20;;;14.50;;
20179;SDS011;10249;48.900;9.090;2023-07-31T13:32:31;14.85;;;14.15;;
20179;SDS011;10249;48.900;9.090;2023-07-31T13:34:58;14.57;;;13.88;;
20179;SDS011;10249;48.900;9.090;2023-07-31T13:37:25;15.15;;;14.45;;
20179;SDS011;10249;48.900;9.090;2023-07-31T13:39:52;15.50;;;14.70;;
20179;SDS011;10249;48.900;9.090;2023-07-31T13:42:19;15.00;;;14.30;;
20179;SDS011;10249;48.900;9.090;2023-07-31T13:44:48;14.90;;;14.20;;
20179;SDS011;10249;48.900;9.090;2023-07-31T13:47:15;15.03;;;14.33;;
20179;SDS011;10249;48.900;9.090;2023-07-31T13:49:42;15.95;;;15.15;;
20179;SDS011;10249;48.900;9.090;2023-07-31T13:52:09;14.90;;;14.20;;
20179;SDS011;10249;48.900;9.090;2023-07-31T13:54:36;15.00;;;14.30;;
20179;SDS011;10249;48.900;9.090;2023-07-31T13:57:04;15.48;;;14.77;;
20179;SDS011;10249;48.900;9.090;2023-07-31T13:59:31;15.07;;;14.37;;
20179;SDS011;10249;48.900;9.090;2023-07-31T14:01:59;15.20;;;14.50;;
20179;SDS011;10249;48.900;9.090;2023-07-31T14:04:26;15.57;;;14.87;;
20179;SDS011;10249;48.900;9.090;2023-07-31T14:06:53;15.30;;;14.60;;
20179;SDS011;10249;48.900;9.090;2023-07-31T14:09:22;15.33;;;14.63;;
20179;SDS011;10249;48.900;9.090;2023-07-31T14:11:50;15.23;;;14.53;;
20179;SDS011;10249;48.900;9.090;2023-07-31T14:14:17;15.30;;;14.60;;
20179;SDS011;10249;48.900;9.090;2023-07-31T14:16:44;15.47;;;14.77;;
20179;SDS011;10249;48.900;9.090;2023-07-31T14:19:13;15.50;;;14.70;;
20179;SDS011;10249;48.900;9.090;2023-07-31T14:21:40;15.87;;;15.07;;
20179;SDS011;10249;48.900;9.090;2023-07-31T14:24:07;15.20;;;14.50;;
20179;SDS011;10249;48.900;9.090;2023-07-31T14:26:34;15.27;;;14.57;;
20179;SDS011;10249;48.900;9.090;2023-07-31T14:29:01;15.60;;;14.80;;